sensor_id;sensor_type;location;lat;lon;timestamp;pressure;altitude;pressure_sealevel;temperature;humidity
7930;BME280;4010;42.698;23.124;2022-11-09T00:01:03;77236.84;;;-140.64;100.00
7930;BME280;4010;42.698;23.124;2022-11-09T00:03:30;76195.72;;;-140.64;100.00
7930;BME280;4010;42.698;23.124;2022-11-09T00:05:58;74634.59;;;-140.64;100.00
7930;BME280;4010;42.698;23.124;2022-11-09T00:08:26;75675.25;;;-140.64;100.00
7930;BME280;4010;42.698;23.124;2022-11-09T00:10:53;74894.72;;;-140.64;100.00
7930;BME280;4010;42.698;23.124;2022-11-09T00:13:20;73074.16;;;-140.64;100.00
7930;BME280;4010;42.698;23.124;2022-11-09T00:15:47;73594.22;;;-140.64;100.00
7930;BME280;4010;42.698;23.124;2022-11-09T00:18:13;74114.38;;;-140.64;100.00
7930;BME280;4010;42.698;23.124;2022-11-09T00:20:40;73594.22;;;-140.64;100.00
7930;BME280;4010;42.698;23.124;2022-11-09T00:23:08;73594.22;;;-140.64;100.00
7930;BME280;4010;42.698;23.124;2022-11-09T00:25:35;74634.59;;;-140.64;100.00
7930;BME280;4010;42.698;23.124;2022-11-09T00:28:02;74114.38;;;-140.64;100.00
7930;BME280;4010;42.698;23.124;2022-11-09T00:30:29;71774.38;;;-140.64;100.00
7930;BME280;4010;42.698;23.124;2022-11-09T00:32:55;72294.22;;;-140.64;100.00
7930;BME280;4010;42.698;23.124;2022-11-09T00:35:22;72554.19;;;-140.64;100.00
7930;BME280;4010;42.698;23.124;2022-11-09T00:37:49;74114.38;;;-140.64;100.00
7930;BME280;4010;42.698;23.124;2022-11-09T00:40:17;74374.47;;;-140.64;100.00
7930;BME280;4010;42.698;23.124;2022-11-09T00:42:44;74634.59;;;-140.64;100.00
7930;BME280;4010;42.698;23.124;2022-11-09T00:45:11;73334.19;;;-140.64;100.00
7930;BME280;4010;42.698;23.124;2022-11-09T00:47:37;73074.16;;;-140.64;100.00
7930;BME280;4010;42.698;23.124;2022-11-09T00:50:05;73334.19;;;-140.64;100.00
7930;BME280;4010;42.698;23.124;2022-11-09T00:52:32;73334.19;;;-140.64;100.00
7930;BME280;4010;42.698;23.124;2022-11-09T00:54:58;73074.16;;;-140.64;100.00
7930;BME280;4010;42.698;23.124;2022-11-09T00:57:26;72294.22;;;-140.64;100.00
7930;BME280;4010;42.698;23.124;2022-11-09T00:59:53;73074.16;;;-140.64;100.00
7930;BME280;4010;42.698;23.124;2022-11-09T01:02:20;73334.19;;;-140.64;100.00
7930;BME280;4010;42.698;23.124;2022-11-09T01:04:47;73074.16;;;-140.64;100.00
7930;BME280;4010;42.698;23.124;2022-11-09T01:07:14;72554.19;;;-140.64;100.00
7930;BME280;4010;42.698;23.124;2022-11-09T01:09:40;76716.25;;;-140.64;100.00
7930;BME280;4010;42.698;23.124;2022-11-09T01:12:07;77757.53;;;-140.64;100.00
7930;BME280;4010;42.698;23.124;2022-11-09T01:14:35;75935.47;;;-140.64;100.00
7930;BME280;4010;42.698;23.124;2022-11-09T01:17:02;76195.72;;;-140.64;100.00
7930;BME280;4010;42.698;23.124;2022-11-09T01:19:29;75935.47;;;-140.64;100.00
7930;BME280;4010;42.698;23.124;2022-11-09T01:21:56;75935.47;;;-140.64;100.00
7930;BME280;4010;42.698;23.124;2022-11-09T01:24:23;76455.97;;;-140.64;100.00
7930;BME280;4010;42.698;23.124;2022-11-09T01:26:49;73074.16;;;-140.64;100.00
7930;BME280;4010;42.698;23.124;2022-11-09T01:29:16;77497.19;;;-140.64;100.00
7930;BME280;4010;42.698;23.124;2022-11-09T01:31:44;79320.09;;;-140.64;100.00
7930;BME280;4010;42.698;23.124;2022-11-09T01:34:12;76976.53;;;-140.64;100.00
7930;BME280;4010;42.698;23.124;2022-11-09T01:36:41;79841.09;;;-140.64;100.00
7930;BME280;4010;42.698;23.124;2022-11-09T01:39:08;80362.19;;;-140.64;100.00
7930;BME280;4010;42.698;23.124;2022-11-09T01:41:35;79580.59;;;-140.64;100.00
7930;BME280;4010;42.698;23.124;2022-11-09T01:44:03;77497.19;;;-140.64;100.00
7930;BME280;4010;42.698;23.124;2022-11-09T01:46:35;74894.72;;;-140.64;100.00
7930;BME280;4010;42.698;23.124;2022-11-09T01:49:09;76195.72;;;-140.64;100.00
7930;BME280;4010;42.698;23.124;2022-11-09T01:51:40;78799.16;;;-140.64;100.00
7930;BME280;4010;42.698;23.124;2022-11-09T01:54:11;76976.53;;;-140.64;100.00
7930;BME280;4010;42.698;23.124;2022-11-09T01:56:39;76976.53;;;-140.64;100.00
7930;BME280;4010;42.698;23.124;2022-11-09T01:59:09;76195.72;;;-140.64;100.00
7930;BME280;4010;42.698;23.124;2022-11-09T02:01:39;75415.06;;;-140.64;100.00
7930;BME280;4010;42.698;23.124;2022-11-09T02:04:13;75154.88;;;-140.64;100.00
7930;BME280;4010;42.698;23.124;2022-11-09T02:06:42;75154.88;;;-140.64;100.00
7930;BME280;4010;42.698;23.124;2022-11-09T02:09:13;75675.25;;;-140.64;100.00
7930;BME280;4010;42.698;23.124;2022-11-09T02:11:41;75154.88;;;-140.64;100.00
7930;BME280;4010;42.698;23.124;2022-11-09T02:14:08;74634.59;;;-140.64;100.00
7930;BME280;4010;42.698;23.124;2022-11-09T02:16:36;73854.28;;;-140.64;100.00
7930;BME280;4010;42.698;23.124;2022-11-09T02:19:03;74374.47;;;-140.64;100.00
7930;BME280;4010;42.698;23.124;2022-11-09T02:21:31;73074.16;;;-140.64;100.00
7930;BME280;4010;42.698;23.124;2022-11-09T02:23:59;72814.16;;;-140.64;100.00
7930;BME280;4010;42.698;23.124;2022-11-09T02:26:29;72814.16;;;-140.64;100.00
7930;BME280;4010;42.698;23.124;2022-11-09T02:28:58;72294.22;;;-140.64;100.00
7930;BME280;4010;42.698;23.124;2022-11-09T02:31:32;70994.72;;;-140.64;100.00
7930;BME280;4010;42.698;23.124;2022-11-09T02:34:02;70994.72;;;-140.64;100.00
7930;BME280;4010;42.698;23.124;2022-11-09T02:36:32;71514.47;;;-140.64;100.00
7930;BME280;4010;42.698;23.124;2022-11-09T02:38:59;70734.88;;;-140.64;100.00
7930;BME280;4010;42.698;23.124;2022-11-09T02:41:27;70734.88;;;-140.64;100.00
7930;BME280;4010;42.698;23.124;2022-11-09T02:43:55;72554.19;;;-140.64;100.00
7930;BME280;4010;42.698;23.124;2022-11-09T02:46:24;72814.16;;;-140.64;100.00
7930;BME280;4010;42.698;23.124;2022-11-09T02:48:55;72554.19;;;-140.64;100.00
7930;BME280;4010;42.698;23.124;2022-11-09T02:51:22;72814.16;;;-140.64;100.00
7930;BME280;4010;42.698;23.124;2022-11-09T02:53:50;73074.16;;;-140.64;100.00
7930;BME280;4010;42.698;23.124;2022-11-09T02:56:16;73074.16;;;-140.64;100.00
7930;BME280;4010;42.698;23.124;2022-11-09T02:58:43;72814.16;;;-140.64;100.00
7930;BME280;4010;42.698;23.124;2022-11-09T03:01:10;72294.22;;;-140.64;100.00
7930;BME280;4010;42.698;23.124;2022-11-09T03:03:37;72034.28;;;-140.64;100.00
7930;BME280;4010;42.698;23.124;2022-11-09T03:06:04;71514.47;;;-140.64;100.00
7930;BME280;4010;42.698;23.124;2022-11-09T03:08:30;69176.25;;;-140.64;100.00
7930;BME280;4010;42.698;23.124;2022-11-09T03:10:59;67358.72;;;-140.64;100.00
7930;BME280;4010;42.698;23.124;2022-11-09T03:13:26;64763.97;;;-140.64;100.00
7930;BME280;4010;42.698;23.124;2022-11-09T03:15:53;63467.31;;;-140.64;100.00
7930;BME280;4010;42.698;23.124;2022-11-09T03:18:20;63726.63;;;-140.64;100.00
7930;BME280;4010;42.698;23.124;2022-11-09T03:20:46;64504.59;;;-140.64;100.00
7930;BME280;4010;42.698;23.124;2022-11-09T03:23:13;64504.59;;;-140.64;100.00
7930;BME280;4010;42.698;23.124;2022-11-09T03:25:40;63467.31;;;-140.64;100.00
7930;BME280;4010;42.698;23.124;2022-11-09T03:28:08;61134.59;;;-140.64;100.00
7930;BME280;4010;42.698;23.124;2022-11-09T03:30:34;60357.41;;;-140.64;100.00
7930;BME280;4010;42.698;23.124;2022-11-09T03:33:03;59839.34;;;-140.64;100.00
7930;BME280;4010;42.698;23.124;2022-11-09T03:35:34;59062.44;;;-140.64;100.00
7930;BME280;4010;42.698;23.124;2022-11-09T03:38:01;56991.50;;;-140.64;100.00
7930;BME280;4010;42.698;23.124;2022-11-09T03:40:27;58026.81;;;-140.64;100.00
7930;BME280;4010;42.698;23.124;2022-11-09T03:42:55;59321.38;;;-140.64;100.00
7930;BME280;4010;42.698;23.124;2022-11-09T03:45:23;58544.59;;;-140.64;100.00
7930;BME280;4010;42.698;23.124;2022-11-09T03:47:52;57767.97;;;-140.64;100.00
7930;BME280;4010;42.698;23.124;2022-11-09T03:50:21;57509.13;;;-140.64;100.00
7930;BME280;4010;42.698;23.124;2022-11-09T03:52:48;55956.53;;;-140.64;100.00
7930;BME280;4010;42.698;23.124;2022-11-09T03:55:14;59062.44;;;-140.64;100.00
7930;BME280;4010;42.698;23.124;2022-11-09T03:57:43;59580.34;;;-140.64;100.00
7930;BME280;4010;42.698;23.124;2022-11-09T04:00:12;57767.97;;;-140.64;100.00
7930;BME280;4010;42.698;23.124;2022-11-09T04:02:40;58026.81;;;-140.64;100.00
7930;BME280;4010;42.698;23.124;2022-11-09T04:05:08;58803.50;;;-140.64;100.00
7930;BME280;4010;42.698;23.124;2022-11-09T04:07:35;58803.50;;;-140.64;100.00
7930;BME280;4010;42.698;23.124;2022-11-09T04:10:02;58803.50;;;-140.64;100.00
7930;BME280;4010;42.698;23.124;2022-11-09T04:12:29;59839.34;;;-140.64;100.00
7930;BME280;4010;42.698;23.124;2022-11-09T04:14:56;60616.44;;;-140.64;100.00
7930;BME280;4010;42.698;23.124;2022-11-09T04:17:22;60098.38;;;-140.64;100.00
7930;BME280;4010;42.698;23.124;2022-11-09T04:19:50;59839.34;;;-140.64;100.00
7930;BME280;4010;42.698;23.124;2022-11-09T04:22:17;60098.38;;;-140.64;100.00
7930;BME280;4010;42.698;23.124;2022-11-09T04:24:44;58803.50;;;-140.64;100.00
7930;BME280;4010;42.698;23.124;2022-11-09T04:27:10;59062.44;;;-140.64;100.00
7930;BME280;4010;42.698;23.124;2022-11-09T04:29:37;59062.44;;;-140.64;100.00
7930;BME280;4010;42.698;23.124;2022-11-09T04:32:04;58026.81;;;-140.64;100.00
7930;BME280;4010;42.698;23.124;2022-11-09T04:34:31;57509.13;;;-140.64;100.00
7930;BME280;4010;42.698;23.124;2022-11-09T04:36:59;56991.50;;;-140.64;100.00
7930;BME280;4010;42.698;23.124;2022-11-09T04:39:25;56732.72;;;-140.64;100.00
7930;BME280;4010;42.698;23.124;2022-11-09T04:41:52;56473.97;;;-140.64;100.00
7930;BME280;4010;42.698;23.124;2022-11-09T04:44:19;54921.84;;;-140.64;100.00
7930;BME280;4010;42.698;23.124;2022-11-09T04:46:45;54663.25;;;-140.64;100.00
7930;BME280;4010;42.698;23.124;2022-11-09T04:49:12;57767.97;;;-140.64;100.00
7930;BME280;4010;42.698;23.124;2022-11-09T04:51:39;58544.59;;;-140.64;100.00
7930;BME280;4010;42.698;23.124;2022-11-09T04:54:07;59321.38;;;-140.64;100.00
7930;BME280;4010;42.698;23.124;2022-11-09T04:56:33;60098.38;;;-140.64;100.00
7930;BME280;4010;42.698;23.124;2022-11-09T04:59:00;60098.38;;;-140.64;100.00
7930;BME280;4010;42.698;23.124;2022-11-09T05:01:27;60098.38;;;-140.64;100.00
7930;BME280;4010;42.698;23.124;2022-11-09T05:03:53;59321.38;;;-140.64;100.00
7930;BME280;4010;42.698;23.124;2022-11-09T05:06:20;58285.69;;;-140.64;100.00
7930;BME280;4010;42.698;23.124;2022-11-09T05:09:00;56732.72;;;-140.64;100.00
7930;BME280;4010;42.698;23.124;2022-11-09T05:11:29;57509.13;;;-140.64;100.00
7930;BME280;4010;42.698;23.124;2022-11-09T05:13:56;56991.50;;;-140.64;100.00
7930;BME280;4010;42.698;23.124;2022-11-09T05:16:23;57250.31;;;-140.64;100.00
7930;BME280;4010;42.698;23.124;2022-11-09T05:18:50;56215.25;;;-140.64;100.00
7930;BME280;4010;42.698;23.124;2022-11-09T05:21:17;53887.50;;;-140.64;100.00
7930;BME280;4010;42.698;23.124;2022-11-09T05:23:44;52853.47;;;-140.64;100.00
7930;BME280;4010;42.698;23.124;2022-11-09T05:26:27;51819.75;;;-140.64;100.00
7930;BME280;4010;42.698;23.124;2022-11-09T05:28:56;50528.03;;;-140.64;100.00
7930;BME280;4010;42.698;23.124;2022-11-09T05:31:23;48720.47;;;-140.64;100.00
7930;BME280;4010;42.698;23.124;2022-11-09T05:33:50;47171.91;;;-140.64;100.00
7930;BME280;4010;42.698;23.124;2022-11-09T05:36:18;45366.13;;;-140.64;100.00
7930;BME280;4010;42.698;23.124;2022-11-09T05:38:44;44076.88;;;-140.64;100.00
7930;BME280;4010;42.698;23.124;2022-11-09T05:41:11;43303.59;;;-140.64;100.00
7930;BME280;4010;42.698;23.124;2022-11-09T05:43:38;42272.78;;;-140.64;100.00
7930;BME280;4010;42.698;23.124;2022-11-09T05:46:07;41242.28;;;-140.64;100.00
7930;BME280;4010;42.698;23.124;2022-11-09T05:48:33;39954.63;;;-140.64;100.00
7930;BME280;4010;42.698;23.124;2022-11-09T05:51:00;38667.47;;;-140.64;100.00
7930;BME280;4010;42.698;23.124;2022-11-09T05:53:28;37380.78;;;-140.64;100.00
7930;BME280;4010;42.698;23.124;2022-11-09T05:55:54;36609.03;;;-140.64;100.00
7930;BME280;4010;42.698;23.124;2022-11-09T05:58:21;36609.03;;;-140.64;100.00
7930;BME280;4010;42.698;23.124;2022-11-09T06:00:48;36351.81;;;-140.64;100.00
7930;BME280;4010;42.698;23.124;2022-11-09T06:03:16;37638.09;;;-140.64;100.00
7930;BME280;4010;42.698;23.124;2022-11-09T06:05:43;37638.09;;;-140.64;100.00
7930;BME280;4010;42.698;23.124;2022-11-09T06:08:11;38667.47;;;-140.64;100.00
7930;BME280;4010;42.698;23.124;2022-11-09T06:10:38;38410.09;;;-140.64;100.00
7930;BME280;4010;42.698;23.124;2022-11-09T06:13:06;39182.28;;;-140.64;100.00
7930;BME280;4010;42.698;23.124;2022-11-09T06:15:32;39439.72;;;-140.64;100.00
7930;BME280;4010;42.698;23.124;2022-11-09T06:18:03;40469.63;;;-140.64;100.00
7930;BME280;4010;42.698;23.124;2022-11-09T06:20:32;39439.72;;;-140.64;100.00
7930;BME280;4010;42.698;23.124;2022-11-09T06:23:00;40212.13;;;-140.64;100.00
7930;BME280;4010;42.698;23.124;2022-11-09T06:25:29;41242.28;;;-140.64;100.00
7930;BME280;4010;42.698;23.124;2022-11-09T06:27:56;42530.44;;;-140.64;100.00
7930;BME280;4010;42.698;23.124;2022-11-09T06:30:23;42015.13;;;-140.64;100.00
7930;BME280;4010;42.698;23.124;2022-11-09T06:32:50;42788.13;;;-140.64;100.00
7930;BME280;4010;42.698;23.124;2022-11-09T06:35:17;41499.88;;;-140.64;100.00
7930;BME280;4010;42.698;23.124;2022-11-09T06:37:45;41499.88;;;-140.64;100.00
7930;BME280;4010;42.698;23.124;2022-11-09T06:40:12;41242.28;;;-140.64;100.00
7930;BME280;4010;42.698;23.124;2022-11-09T06:42:39;39954.63;;;-140.64;100.00
7930;BME280;4010;42.698;23.124;2022-11-09T06:45:07;39182.28;;;-140.64;100.00
7930;BME280;4010;42.698;23.124;2022-11-09T06:47:34;42015.13;;;-140.64;100.00
7930;BME280;4010;42.698;23.124;2022-11-09T06:50:00;42788.13;;;-140.64;100.00
7930;BME280;4010;42.698;23.124;2022-11-09T06:52:27;43045.84;;;-140.64;100.00
7930;BME280;4010;42.698;23.124;2022-11-09T06:54:55;40984.72;;;-140.64;100.00
7930;BME280;4010;42.698;23.124;2022-11-09T06:57:22;39954.63;;;-140.64;100.00
7930;BME280;4010;42.698;23.124;2022-11-09T06:59:48;45366.13;;;-140.64;100.00
7930;BME280;4010;42.698;23.124;2022-11-09T07:02:16;51303.00;;;-140.64;100.00
7930;BME280;4010;42.698;23.124;2022-11-09T07:04:43;59321.38;;;-140.64;100.00
7930;BME280;4010;42.698;23.124;2022-11-09T07:07:10;60098.38;;;-140.64;100.00
7930;BME280;4010;42.698;23.124;2022-11-09T07:09:37;78278.31;;;-140.64;100.00
7930;BME280;4010;42.698;23.124;2022-11-09T07:12:05;84533.69;;;-140.64;100.00
7930;BME280;4010;42.698;23.124;2022-11-09T07:14:32;110720.19;;;-140.64;100.00
7930;BME280;4010;42.698;23.124;2022-11-09T07:16:59;112823.66;;;-140.64;100.00
7930;BME280;4010;42.698;23.124;2022-11-09T07:19:27;112560.66;;;-140.64;100.00
7930;BME280;4010;42.698;23.124;2022-11-09T07:21:54;118349.16;;;-140.64;100.00
7930;BME280;4010;42.698;23.124;2022-11-09T07:24:21;118349.16;;;-140.64;100.00
7930;BME280;4010;42.698;23.124;2022-11-09T07:26:48;118349.16;;;-140.64;100.00
7930;BME280;4010;42.698;23.124;2022-11-09T07:29:16;118349.16;;;-140.64;100.00
7930;BME280;4010;42.698;23.124;2022-11-09T07:31:42;118349.16;;;-140.64;100.00
7930;BME280;4010;42.698;23.124;2022-11-09T07:34:09;118349.16;;;-140.64;100.00
7930;BME280;4010;42.698;23.124;2022-11-09T07:36:36;118349.16;;;-140.64;100.00
7930;BME280;4010;42.698;23.124;2022-11-09T07:39:03;118349.16;;;-140.64;100.00
7930;BME280;4010;42.698;23.124;2022-11-09T07:41:30;118349.16;;;-140.64;100.00
7930;BME280;4010;42.698;23.124;2022-11-09T07:43:56;118349.16;;;-140.64;100.00
7930;BME280;4010;42.698;23.124;2022-11-09T07:46:25;118349.16;;;-140.64;100.00
7930;BME280;4010;42.698;23.124;2022-11-09T07:48:51;118349.16;;;-140.64;100.00
7930;BME280;4010;42.698;23.124;2022-11-09T07:51:18;118349.16;;;-140.64;100.00
7930;BME280;4010;42.698;23.124;2022-11-09T07:53:45;118349.16;;;-140.64;100.00
7930;BME280;4010;42.698;23.124;2022-11-09T07:56:12;118349.16;;;-140.64;100.00
7930;BME280;4010;42.698;23.124;2022-11-09T07:58:39;118349.16;;;-140.64;100.00
7930;BME280;4010;42.698;23.124;2022-11-09T08:01:06;118349.16;;;-140.64;100.00
7930;BME280;4010;42.698;23.124;2022-11-09T08:03:35;118349.16;;;-140.64;100.00
7930;BME280;4010;42.698;23.124;2022-11-09T08:06:02;118349.16;;;-140.64;100.00
7930;BME280;4010;42.698;23.124;2022-11-09T08:08:29;118349.16;;;-140.64;100.00
7930;BME280;4010;42.698;23.124;2022-11-09T08:10:56;118349.16;;;-140.64;100.00
7930;BME280;4010;42.698;23.124;2022-11-09T08:13:23;118349.16;;;-140.64;100.00
7930;BME280;4010;42.698;23.124;2022-11-09T08:15:50;118349.16;;;-140.64;100.00
7930;BME280;4010;42.698;23.124;2022-11-09T08:18:19;118349.16;;;-140.64;100.00
7930;BME280;4010;42.698;23.124;2022-11-09T08:20:48;118349.16;;;-140.64;100.00
7930;BME280;4010;42.698;23.124;2022-11-09T08:23:17;118349.16;;;-140.64;100.00
7930;BME280;4010;42.698;23.124;2022-11-09T08:25:45;118349.16;;;-140.64;100.00
7930;BME280;4010;42.698;23.124;2022-11-09T08:28:12;118349.16;;;-140.64;100.00
7930;BME280;4010;42.698;23.124;2022-11-09T08:30:40;118349.16;;;-140.64;100.00
7930;BME280;4010;42.698;23.124;2022-11-09T08:33:07;118349.16;;;-140.64;100.00
7930;BME280;4010;42.698;23.124;2022-11-09T08:35:34;118349.16;;;-140.64;100.00
7930;BME280;4010;42.698;23.124;2022-11-09T08:38:04;118349.16;;;-140.64;100.00
7930;BME280;4010;42.698;23.124;2022-11-09T08:40:32;118349.16;;;-140.64;100.00
7930;BME280;4010;42.698;23.124;2022-11-09T08:43:02;118349.16;;;-140.64;100.00
7930;BME280;4010;42.698;23.124;2022-11-09T08:45:31;118349.16;;;-140.64;100.00
7930;BME280;4010;42.698;23.124;2022-11-09T08:47:58;118349.16;;;-140.64;100.00
7930;BME280;4010;42.698;23.124;2022-11-09T08:50:26;118349.16;;;-140.64;100.00
7930;BME280;4010;42.698;23.124;2022-11-09T08:52:53;118349.16;;;-140.64;100.00
7930;BME280;4010;42.698;23.124;2022-11-09T08:55:21;118349.16;;;-140.64;100.00
7930;BME280;4010;42.698;23.124;2022-11-09T08:57:52;118349.16;;;-140.64;100.00
7930;BME280;4010;42.698;23.124;2022-11-09T09:00:19;118349.16;;;-140.64;100.00
7930;BME280;4010;42.698;23.124;2022-11-09T09:02:46;118349.16;;;-140.64;100.00
7930;BME280;4010;42.698;23.124;2022-11-09T09:05:13;118349.16;;;-140.64;100.00
7930;BME280;4010;42.698;23.124;2022-11-09T09:07:39;118349.16;;;-140.64;100.00
7930;BME280;4010;42.698;23.124;2022-11-09T09:10:06;118349.16;;;-140.64;100.00
7930;BME280;4010;42.698;23.124;2022-11-09T09:12:35;118349.16;;;-140.64;100.00
7930;BME280;4010;42.698;23.124;2022-11-09T09:15:02;118349.16;;;-140.64;100.00
7930;BME280;4010;42.698;23.124;2022-11-09T09:17:29;118349.16;;;-140.64;100.00
7930;BME280;4010;42.698;23.124;2022-11-09T09:19:56;118349.16;;;-140.64;100.00
7930;BME280;4010;42.698;23.124;2022-11-09T09:22:23;118349.16;;;-140.64;100.00
7930;BME280;4010;42.698;23.124;2022-11-09T09:24:50;118349.16;;;-140.64;100.00
7930;BME280;4010;42.698;23.124;2022-11-09T09:27:16;118349.16;;;-140.64;100.00
7930;BME280;4010;42.698;23.124;2022-11-09T09:29:46;118349.16;;;-140.64;100.00
7930;BME280;4010;42.698;23.124;2022-11-09T09:32:12;118349.16;;;-140.64;100.00
7930;BME280;4010;42.698;23.124;2022-11-09T09:34:39;118349.16;;;-140.64;100.00
7930;BME280;4010;42.698;23.124;2022-11-09T09:37:06;118349.16;;;-140.64;100.00
7930;BME280;4010;42.698;23.124;2022-11-09T09:39:32;118349.16;;;-140.64;100.00
7930;BME280;4010;42.698;23.124;2022-11-09T09:42:03;118349.16;;;-140.64;100.00
7930;BME280;4010;42.698;23.124;2022-11-09T09:44:35;118349.16;;;-140.64;100.00
7930;BME280;4010;42.698;23.124;2022-11-09T09:47:10;118349.16;;;-140.64;100.00
7930;BME280;4010;42.698;23.124;2022-11-09T09:49:40;118349.16;;;-140.64;100.00
7930;BME280;4010;42.698;23.124;2022-11-09T09:52:15;118349.16;;;-140.64;100.00
7930;BME280;4010;42.698;23.124;2022-11-09T09:54:49;118349.16;;;-140.64;100.00
7930;BME280;4010;42.698;23.124;2022-11-09T09:57:20;118349.16;;;-140.64;100.00
7930;BME280;4010;42.698;23.124;2022-11-09T09:59:49;118349.16;;;-140.64;100.00
7930;BME280;4010;42.698;23.124;2022-11-09T10:02:21;118349.16;;;-140.64;100.00
7930;BME280;4010;42.698;23.124;2022-11-09T10:04:49;118349.16;;;-140.64;100.00
7930;BME280;4010;42.698;23.124;2022-11-09T10:07:22;118349.16;;;-140.64;100.00
7930;BME280;4010;42.698;23.124;2022-11-09T10:10:10;118349.16;;;-140.64;100.00
7930;BME280;4010;42.698;23.124;2022-11-09T10:12:48;118349.16;;;-140.64;100.00
7930;BME280;4010;42.698;23.124;2022-11-09T10:15:21;118349.16;;;-140.64;100.00
7930;BME280;4010;42.698;23.124;2022-11-09T10:18:03;118349.16;;;-140.64;100.00
7930;BME280;4010;42.698;23.124;2022-11-09T10:20:44;118349.16;;;-140.64;100.00
7930;BME280;4010;42.698;23.124;2022-11-09T10:23:27;118349.16;;;-140.64;100.00
7930;BME280;4010;42.698;23.124;2022-11-09T10:26:02;118349.16;;;-140.64;100.00
7930;BME280;4010;42.698;23.124;2022-11-09T10:28:30;118349.16;;;-140.64;100.00
7930;BME280;4010;42.698;23.124;2022-11-09T10:30:59;118349.16;;;-140.64;100.00
7930;BME280;4010;42.698;23.124;2022-11-09T10:33:28;118349.16;;;-140.64;100.00
7930;BME280;4010;42.698;23.124;2022-11-09T10:36:01;118349.16;;;-140.64;100.00
7930;BME280;4010;42.698;23.124;2022-11-09T10:38:31;118349.16;;;-140.64;100.00
7930;BME280;4010;42.698;23.124;2022-11-09T10:41:03;118349.16;;;-140.64;100.00
7930;BME280;4010;42.698;23.124;2022-11-09T10:43:32;118349.16;;;-140.64;100.00
7930;BME280;4010;42.698;23.124;2022-11-09T10:46:00;118349.16;;;-140.64;100.00
7930;BME280;4010;42.698;23.124;2022-11-09T10:48:32;118349.16;;;-140.64;100.00
7930;BME280;4010;42.698;23.124;2022-11-09T10:50:59;118349.16;;;-140.64;100.00
7930;BME280;4010;42.698;23.124;2022-11-09T10:53:28;118349.16;;;-140.64;100.00
7930;BME280;4010;42.698;23.124;2022-11-09T10:55:56;118349.16;;;-140.64;100.00
7930;BME280;4010;42.698;23.124;2022-11-09T10:58:30;118349.16;;;-140.64;100.00
7930;BME280;4010;42.698;23.124;2022-11-09T11:01:03;118349.16;;;-140.64;100.00
7930;BME280;4010;42.698;23.124;2022-11-09T11:03:34;118349.16;;;-140.64;100.00
7930;BME280;4010;42.698;23.124;2022-11-09T11:06:03;118349.16;;;-140.64;100.00
7930;BME280;4010;42.698;23.124;2022-11-09T11:08:33;118349.16;;;-140.64;100.00
7930;BME280;4010;42.698;23.124;2022-11-09T11:11:17;118349.16;;;-140.64;100.00
7930;BME280;4010;42.698;23.124;2022-11-09T11:13:46;118349.16;;;-140.64;100.00
7930;BME280;4010;42.698;23.124;2022-11-09T11:16:22;118349.16;;;-140.64;100.00
7930;BME280;4010;42.698;23.124;2022-11-09T11:18:51;118349.16;;;-140.64;100.00
7930;BME280;4010;42.698;23.124;2022-11-09T11:21:19;118349.16;;;-140.64;100.00
7930;BME280;4010;42.698;23.124;2022-11-09T11:24:04;118349.16;;;-140.64;100.00
7930;BME280;4010;42.698;23.124;2022-11-09T11:26:41;118349.16;;;-140.64;100.00
7930;BME280;4010;42.698;23.124;2022-11-09T11:29:21;118349.16;;;-140.64;100.00
7930;BME280;4010;42.698;23.124;2022-11-09T11:31:50;118349.16;;;-140.64;100.00
7930;BME280;4010;42.698;23.124;2022-11-09T11:34:18;118349.16;;;-140.64;100.00
7930;BME280;4010;42.698;23.124;2022-11-09T11:36:54;118349.16;;;-140.64;100.00
7930;BME280;4010;42.698;23.124;2022-11-09T11:39:36;118349.16;;;-140.64;100.00
7930;BME280;4010;42.698;23.124;2022-11-09T11:42:24;118349.16;;;-140.64;100.00
7930;BME280;4010;42.698;23.124;2022-11-09T11:45:05;118349.16;;;-140.64;100.00
7930;BME280;4010;42.698;23.124;2022-11-09T11:47:44;118349.16;;;-140.64;100.00
7930;BME280;4010;42.698;23.124;2022-11-09T11:50:27;118349.16;;;-140.64;100.00
7930;BME280;4010;42.698;23.124;2022-11-09T11:53:06;118349.16;;;-140.64;100.00
7930;BME280;4010;42.698;23.124;2022-11-09T11:58:48;118349.16;;;-140.64;100.00
7930;BME280;4010;42.698;23.124;2022-11-09T12:01:28;118349.16;;;-140.64;100.00
7930;BME280;4010;42.698;23.124;2022-11-09T12:04:15;118349.16;;;-140.64;100.00
7930;BME280;4010;42.698;23.124;2022-11-09T12:06:59;118349.16;;;-140.64;100.00
7930;BME280;4010;42.698;23.124;2022-11-09T12:09:47;118349.16;;;-140.64;100.00
7930;BME280;4010;42.698;23.124;2022-11-09T12:12:23;118349.16;;;-140.64;100.00
7930;BME280;4010;42.698;23.124;2022-11-09T12:15:04;118349.16;;;-140.64;100.00
7930;BME280;4010;42.698;23.124;2022-11-09T12:17:41;118349.16;;;-140.64;100.00
7930;BME280;4010;42.698;23.124;2022-11-09T12:20:21;118349.16;;;-140.64;100.00
7930;BME280;4010;42.698;23.124;2022-11-09T12:23:01;118349.16;;;-140.64;100.00
7930;BME280;4010;42.698;23.124;2022-11-09T12:25:35;118349.16;;;-140.64;100.00
7930;BME280;4010;42.698;23.124;2022-11-09T12:28:17;118349.16;;;-140.64;100.00
7930;BME280;4010;42.698;23.124;2022-11-09T12:30:58;118349.16;;;-140.64;100.00
7930;BME280;4010;42.698;23.124;2022-11-09T12:33:38;118349.16;;;-140.64;100.00
7930;BME280;4010;42.698;23.124;2022-11-09T12:36:08;118349.16;;;-140.64;100.00
7930;BME280;4010;42.698;23.124;2022-11-09T12:38:49;118349.16;;;-140.64;100.00
7930;BME280;4010;42.698;23.124;2022-11-09T12:41:21;118349.16;;;-140.64;100.00
7930;BME280;4010;42.698;23.124;2022-11-09T12:43:53;118349.16;;;-140.64;100.00
7930;BME280;4010;42.698;23.124;2022-11-09T12:46:26;118349.16;;;-140.64;100.00
7930;BME280;4010;42.698;23.124;2022-11-09T12:48:57;118349.16;;;-140.64;100.00